sensor_id;sensor_type;location;lat;lon;timestamp;pressure;altitude;pressure_sealevel;temperature;humidity
58473;BME280;44775;51.564;5.460;2023-02-26T00:01:15;101556.78;;;-0.59;100.00
58473;BME280;44775;51.564;5.460;2023-02-26T00:03:41;101547.97;;;-0.76;100.00
58473;BME280;44775;51.564;5.460;2023-02-26T00:06:06;101563.72;;;-0.76;100.00
58473;BME280;44775;51.564;5.460;2023-02-26T00:08:32;101570.16;;;-0.64;100.00
58473;BME280;44775;51.564;5.460;2023-02-26T00:10:57;101570.16;;;-0.64;100.00
58473;BME280;44775;51.564;5.460;2023-02-26T00:13:26;101567.88;;;-0.54;100.00
58473;BME280;44775;51.564;5.460;2023-02-26T00:15:55;101576.22;;;-0.46;100.00
58473;BME280;44775;51.564;5.460;2023-02-26T00:18:23;101581.16;;;-0.40;100.00
58473;BME280;44775;51.564;5.460;2023-02-26T00:20:48;101574.03;;;-0.38;100.00
58473;BME280;44775;51.564;5.460;2023-02-26T00:23:14;101577.28;;;-0.33;100.00
58473;BME280;44775;51.564;5.460;2023-02-26T00:25:40;101573.72;;;-0.32;100.00
58473;BME280;44775;51.564;5.460;2023-02-26T00:28:06;101580.09;;;-0.20;100.00
58473;BME280;44775;51.564;5.460;2023-02-26T00:30:32;101585.19;;;-0.17;100.00
58473;BME280;44775;51.564;5.460;2023-02-26T00:32:58;101575.84;;;-0.22;100.00
58473;BME280;44775;51.564;5.460;2023-02-26T00:35:24;101588.84;;;-0.19;100.00
58473;BME280;44775;51.564;5.460;2023-02-26T00:37:56;101598.25;;;-0.15;100.00
58473;BME280;44775;51.564;5.460;2023-02-26T00:40:42;101595.19;;;-0.08;100.00
58473;BME280;44775;51.564;5.460;2023-02-26T00:43:22;101604.38;;;0.01;100.00
58473;BME280;44775;51.564;5.460;2023-02-26T00:49:09;101614.22;;;0.13;100.00
58473;BME280;44775;51.564;5.460;2023-02-26T00:51:57;101610.88;;;0.27;100.00
58473;BME280;44775;51.564;5.460;2023-02-26T00:54:24;101600.41;;;0.26;100.00
58473;BME280;44775;51.564;5.460;2023-02-26T00:56:51;101614.66;;;0.21;100.00
58473;BME280;44775;51.564;5.460;2023-02-26T00:59:18;101611.44;;;0.16;100.00
58473;BME280;44775;51.564;5.460;2023-02-26T01:01:43;101616.09;;;0.11;100.00
58473;BME280;44775;51.564;5.460;2023-02-26T01:04:10;101618.47;;;0.00;100.00
58473;BME280;44775;51.564;5.460;2023-02-26T01:06:41;101612.69;;;-0.07;100.00
58473;BME280;44775;51.564;5.460;2023-02-26T01:09:15;101621.25;;;-0.03;100.00
58473;BME280;44775;51.564;5.460;2023-02-26T01:11:41;101625.47;;;-0.01;100.00
58473;BME280;44775;51.564;5.460;2023-02-26T01:14:07;101629.88;;;-0.01;100.00
58473;BME280;44775;51.564;5.460;2023-02-26T01:16:49;101623.72;;;0.00;100.00
58473;BME280;44775;51.564;5.460;2023-02-26T01:19:25;101629.34;;;-0.08;100.00
58473;BME280;44775;51.564;5.460;2023-02-26T01:22:11;101629.66;;;0.04;100.00
58473;BME280;44775;51.564;5.460;2023-02-26T01:24:39;101627.72;;;0.07;100.00
58473;BME280;44775;51.564;5.460;2023-02-26T01:27:05;101628.47;;;0.09;100.00
58473;BME280;44775;51.564;5.460;2023-02-26T01:29:31;101627.34;;;-0.03;100.00
58473;BME280;44775;51.564;5.460;2023-02-26T01:40:12;101636.28;;;-0.22;100.00
58473;BME280;44775;51.564;5.460;2023-02-26T01:42:45;101620.81;;;-0.29;100.00
58473;BME280;44775;51.564;5.460;2023-02-26T01:45:17;101626.31;;;-0.33;100.00
58473;BME280;44775;51.564;5.460;2023-02-26T01:47:56;101630.06;;;-0.21;100.00
58473;BME280;44775;51.564;5.460;2023-02-26T01:50:24;101635.50;;;-0.25;100.00
58473;BME280;44775;51.564;5.460;2023-02-26T01:55:34;101642.69;;;-0.45;100.00
58473;BME280;44775;51.564;5.460;2023-02-26T01:58:00;101646.47;;;-0.51;100.00
58473;BME280;44775;51.564;5.460;2023-02-26T02:00:28;101653.91;;;-0.59;100.00
58473;BME280;44775;51.564;5.460;2023-02-26T02:02:54;101652.81;;;-0.55;100.00
58473;BME280;44775;51.564;5.460;2023-02-26T02:05:38;101670.19;;;-0.53;100.00
58473;BME280;44775;51.564;5.460;2023-02-26T02:08:05;101669.41;;;-0.72;100.00
58473;BME280;44775;51.564;5.460;2023-02-26T02:10:31;101665.53;;;-0.65;100.00
58473;BME280;44775;51.564;5.460;2023-02-26T02:13:46;101670.88;;;-0.66;100.00
58473;BME280;44775;51.564;5.460;2023-02-26T02:16:07;101674.06;;;-0.60;100.00
58473;BME280;44775;51.564;5.460;2023-02-26T02:23:56;101678.22;;;-0.38;100.00
58473;BME280;44775;51.564;5.460;2023-02-26T02:31:47;101691.59;;;-0.43;100.00
58473;BME280;44775;51.564;5.460;2023-02-26T02:34:25;101703.78;;;-0.59;100.00
58473;BME280;44775;51.564;5.460;2023-02-26T02:39:45;101703.84;;;-0.61;100.00
58473;BME280;44775;51.564;5.460;2023-02-26T02:44:56;101706.66;;;-0.64;100.00
58473;BME280;44775;51.564;5.460;2023-02-26T02:47:23;101697.03;;;-0.82;100.00
58473;BME280;44775;51.564;5.460;2023-02-26T02:50:01;101713.72;;;-0.83;100.00
58473;BME280;44775;51.564;5.460;2023-02-26T02:52:37;101710.72;;;-0.95;100.00
58473;BME280;44775;51.564;5.460;2023-02-26T02:55:29;101713.28;;;-0.93;100.00
58473;BME280;44775;51.564;5.460;2023-02-26T02:57:59;101707.13;;;-0.92;100.00
58473;BME280;44775;51.564;5.460;2023-02-26T03:00:28;101702.25;;;-1.00;100.00
58473;BME280;44775;51.564;5.460;2023-02-26T03:05:39;101724.41;;;-0.88;100.00
58473;BME280;44775;51.564;5.460;2023-02-26T03:08:08;101732.66;;;-0.96;100.00
58473;BME280;44775;51.564;5.460;2023-02-26T03:10:35;101735.78;;;-1.06;100.00
58473;BME280;44775;51.564;5.460;2023-02-26T03:13:01;101731.63;;;-1.10;100.00
58473;BME280;44775;51.564;5.460;2023-02-26T03:15:35;101719.19;;;-1.26;100.00
58473;BME280;44775;51.564;5.460;2023-02-26T03:18:25;101730.41;;;-1.22;100.00
58473;BME280;44775;51.564;5.460;2023-02-26T03:21:05;101743.16;;;-1.33;100.00
58473;BME280;44775;51.564;5.460;2023-02-26T03:23:40;101738.28;;;-1.41;100.00
58473;BME280;44775;51.564;5.460;2023-02-26T03:26:17;101748.25;;;-1.30;100.00
58473;BME280;44775;51.564;5.460;2023-02-26T03:28:47;101747.50;;;-1.13;100.00
58473;BME280;44775;51.564;5.460;2023-02-26T03:31:21;101750.22;;;-1.35;100.00
58473;BME280;44775;51.564;5.460;2023-02-26T03:33:58;101752.66;;;-1.31;100.00
58473;BME280;44775;51.564;5.460;2023-02-26T03:39:06;101758.97;;;-1.16;100.00
58473;BME280;44775;51.564;5.460;2023-02-26T03:41:41;101765.84;;;-1.13;100.00
58473;BME280;44775;51.564;5.460;2023-02-26T03:44:15;101763.09;;;-1.10;100.00
58473;BME280;44775;51.564;5.460;2023-02-26T03:46:47;101767.19;;;-1.24;100.00
58473;BME280;44775;51.564;5.460;2023-02-26T03:49:21;101757.81;;;-1.29;100.00
58473;BME280;44775;51.564;5.460;2023-02-26T03:51:49;101768.88;;;-1.23;100.00
58473;BME280;44775;51.564;5.460;2023-02-26T03:54:21;101771.22;;;-1.16;100.00
58473;BME280;44775;51.564;5.460;2023-02-26T03:56:50;101771.59;;;-1.24;100.00
58473;BME280;44775;51.564;5.460;2023-02-26T03:59:16;101781.06;;;-1.22;100.00
58473;BME280;44775;51.564;5.460;2023-02-26T04:01:52;101781.38;;;-1.28;100.00
58473;BME280;44775;51.564;5.460;2023-02-26T04:04:30;101784.75;;;-1.26;100.00
58473;BME280;44775;51.564;5.460;2023-02-26T04:06:57;101778.81;;;-1.29;100.00
58473;BME280;44775;51.564;5.460;2023-02-26T04:09:22;101783.16;;;-1.28;100.00
58473;BME280;44775;51.564;5.460;2023-02-26T04:11:48;101799.47;;;-1.42;100.00
58473;BME280;44775;51.564;5.460;2023-02-26T04:14:15;101795.28;;;-1.46;100.00
58473;BME280;44775;51.564;5.460;2023-02-26T04:16:42;101791.97;;;-1.50;100.00
58473;BME280;44775;51.564;5.460;2023-02-26T04:19:08;101787.81;;;-1.55;100.00
58473;BME280;44775;51.564;5.460;2023-02-26T04:21:33;101803.09;;;-1.45;100.00
58473;BME280;44775;51.564;5.460;2023-02-26T04:23:58;101804.88;;;-1.45;100.00
58473;BME280;44775;51.564;5.460;2023-02-26T04:26:23;101801.94;;;-1.58;100.00
58473;BME280;44775;51.564;5.460;2023-02-26T04:28:49;101800.78;;;-1.52;100.00
58473;BME280;44775;51.564;5.460;2023-02-26T04:31:14;101816.53;;;-1.52;100.00
58473;BME280;44775;51.564;5.460;2023-02-26T04:33:39;101812.78;;;-1.47;100.00
58473;BME280;44775;51.564;5.460;2023-02-26T04:36:05;101815.50;;;-1.48;100.00
58473;BME280;44775;51.564;5.460;2023-02-26T04:38:30;101812.88;;;-1.48;100.00
58473;BME280;44775;51.564;5.460;2023-02-26T04:40:55;101823.06;;;-1.42;100.00
58473;BME280;44775;51.564;5.460;2023-02-26T04:43:21;101822.16;;;-1.41;100.00
58473;BME280;44775;51.564;5.460;2023-02-26T04:45:47;101829.63;;;-1.52;100.00
58473;BME280;44775;51.564;5.460;2023-02-26T04:48:14;101832.91;;;-1.47;100.00
58473;BME280;44775;51.564;5.460;2023-02-26T04:50:40;101827.22;;;-1.57;100.00
58473;BME280;44775;51.564;5.460;2023-02-26T04:53:05;101830.03;;;-1.41;100.00
58473;BME280;44775;51.564;5.460;2023-02-26T04:55:31;101837.81;;;-1.39;100.00
58473;BME280;44775;51.564;5.460;2023-02-26T04:57:56;101831.84;;;-1.43;100.00
58473;BME280;44775;51.564;5.460;2023-02-26T05:00:21;101848.88;;;-1.33;100.00
58473;BME280;44775;51.564;5.460;2023-02-26T05:02:46;101838.88;;;-1.44;100.00
58473;BME280;44775;51.564;5.460;2023-02-26T05:05:12;101847.13;;;-1.53;100.00
58473;BME280;44775;51.564;5.460;2023-02-26T05:07:37;101843.16;;;-1.41;100.00
58473;BME280;44775;51.564;5.460;2023-02-26T05:10:05;101858.41;;;-1.30;100.00
58473;BME280;44775;51.564;5.460;2023-02-26T05:12:30;101860.56;;;-1.40;100.00
58473;BME280;44775;51.564;5.460;2023-02-26T05:14:56;101849.69;;;-1.31;100.00
58473;BME280;44775;51.564;5.460;2023-02-26T05:17:21;101860.81;;;-1.46;100.00
58473;BME280;44775;51.564;5.460;2023-02-26T05:19:46;101866.91;;;-1.46;100.00
58473;BME280;44775;51.564;5.460;2023-02-26T05:22:12;101869.09;;;-1.55;100.00
58473;BME280;44775;51.564;5.460;2023-02-26T05:24:38;101874.88;;;-1.47;100.00
58473;BME280;44775;51.564;5.460;2023-02-26T05:27:03;101866.78;;;-1.63;100.00
58473;BME280;44775;51.564;5.460;2023-02-26T05:29:28;101867.47;;;-1.58;100.00
58473;BME280;44775;51.564;5.460;2023-02-26T05:31:54;101869.75;;;-1.50;100.00
58473;BME280;44775;51.564;5.460;2023-02-26T05:34:19;101885.84;;;-1.59;100.00
58473;BME280;44775;51.564;5.460;2023-02-26T05:36:44;101882.34;;;-1.58;100.00
58473;BME280;44775;51.564;5.460;2023-02-26T05:39:09;101883.53;;;-1.45;100.00
58473;BME280;44775;51.564;5.460;2023-02-26T05:41:35;101885.56;;;-1.52;100.00
58473;BME280;44775;51.564;5.460;2023-02-26T05:44:00;101877.16;;;-1.60;100.00
58473;BME280;44775;51.564;5.460;2023-02-26T05:46:26;101884.16;;;-1.60;100.00
58473;BME280;44775;51.564;5.460;2023-02-26T05:48:52;101892.66;;;-1.55;100.00
58473;BME280;44775;51.564;5.460;2023-02-26T05:51:17;101886.91;;;-1.63;100.00
58473;BME280;44775;51.564;5.460;2023-02-26T05:53:44;101884.41;;;-1.67;100.00
58473;BME280;44775;51.564;5.460;2023-02-26T05:56:09;101891.56;;;-1.50;100.00
58473;BME280;44775;51.564;5.460;2023-02-26T05:58:34;101897.34;;;-1.62;100.00
58473;BME280;44775;51.564;5.460;2023-02-26T06:01:00;101886.59;;;-1.56;100.00
58473;BME280;44775;51.564;5.460;2023-02-26T06:03:25;101901.25;;;-1.72;100.00
58473;BME280;44775;51.564;5.460;2023-02-26T06:05:50;101905.91;;;-1.79;100.00
58473;BME280;44775;51.564;5.460;2023-02-26T06:08:16;101915.03;;;-1.89;100.00
58473;BME280;44775;51.564;5.460;2023-02-26T06:10:41;101915.22;;;-1.94;100.00
58473;BME280;44775;51.564;5.460;2023-02-26T06:13:07;101917.25;;;-2.00;100.00
58473;BME280;44775;51.564;5.460;2023-02-26T06:15:32;101927.00;;;-2.04;100.00
58473;BME280;44775;51.564;5.460;2023-02-26T06:17:57;101923.72;;;-2.09;100.00
58473;BME280;44775;51.564;5.460;2023-02-26T06:20:23;101911.34;;;-2.05;100.00
58473;BME280;44775;51.564;5.460;2023-02-26T06:22:48;101928.88;;;-2.07;100.00
58473;BME280;44775;51.564;5.460;2023-02-26T06:25:14;101937.66;;;-2.08;100.00
58473;BME280;44775;51.564;5.460;2023-02-26T06:27:39;101939.56;;;-2.12;100.00
58473;BME280;44775;51.564;5.460;2023-02-26T06:30:05;101937.78;;;-2.11;100.00
58473;BME280;44775;51.564;5.460;2023-02-26T06:32:30;101942.22;;;-2.14;100.00
58473;BME280;44775;51.564;5.460;2023-02-26T06:34:56;101953.19;;;-2.04;100.00
58473;BME280;44775;51.564;5.460;2023-02-26T06:37:21;101958.53;;;-2.07;100.00
58473;BME280;44775;51.564;5.460;2023-02-26T06:39:46;101955.00;;;-2.06;100.00
58473;BME280;44775;51.564;5.460;2023-02-26T06:42:12;101963.13;;;-2.12;100.00
58473;BME280;44775;51.564;5.460;2023-02-26T06:44:37;101967.66;;;-2.17;100.00
58473;BME280;44775;51.564;5.460;2023-02-26T06:47:02;101973.72;;;-2.15;100.00
58473;BME280;44775;51.564;5.460;2023-02-26T06:49:28;101976.09;;;-2.09;100.00
58473;BME280;44775;51.564;5.460;2023-02-26T06:51:53;101980.97;;;-2.22;100.00
58473;BME280;44775;51.564;5.460;2023-02-26T06:54:18;101983.72;;;-2.26;100.00
58473;BME280;44775;51.564;5.460;2023-02-26T06:56:43;101986.75;;;-2.37;100.00
58473;BME280;44775;51.564;5.460;2023-02-26T06:59:09;101986.59;;;-2.32;100.00
58473;BME280;44775;51.564;5.460;2023-02-26T07:01:34;102008.28;;;-2.29;100.00
58473;BME280;44775;51.564;5.460;2023-02-26T07:03:59;102010.69;;;-2.23;100.00
58473;BME280;44775;51.564;5.460;2023-02-26T07:06:25;102012.69;;;-2.29;100.00
58473;BME280;44775;51.564;5.460;2023-02-26T07:08:50;102022.50;;;-2.12;100.00
58473;BME280;44775;51.564;5.460;2023-02-26T07:11:15;102016.91;;;-2.03;100.00
58473;BME280;44775;51.564;5.460;2023-02-26T07:13:41;102024.06;;;-1.85;100.00
58473;BME280;44775;51.564;5.460;2023-02-26T07:16:06;102031.31;;;-1.92;100.00
58473;BME280;44775;51.564;5.460;2023-02-26T07:18:33;102025.66;;;-1.81;100.00
58473;BME280;44775;51.564;5.460;2023-02-26T07:20:59;102036.00;;;-1.78;100.00
58473;BME280;44775;51.564;5.460;2023-02-26T07:23:24;102049.41;;;-1.63;100.00
58473;BME280;44775;51.564;5.460;2023-02-26T07:25:49;102048.31;;;-1.58;100.00
58473;BME280;44775;51.564;5.460;2023-02-26T07:28:15;102055.56;;;-1.43;100.00
58473;BME280;44775;51.564;5.460;2023-02-26T07:30:40;102054.34;;;-1.34;100.00
58473;BME280;44775;51.564;5.460;2023-02-26T07:33:07;102069.34;;;-1.37;100.00
58473;BME280;44775;51.564;5.460;2023-02-26T07:35:33;102077.34;;;-1.40;100.00
58473;BME280;44775;51.564;5.460;2023-02-26T07:37:58;102083.63;;;-1.45;99.59
58473;BME280;44775;51.564;5.460;2023-02-26T07:40:23;102074.13;;;-1.47;100.00
58473;BME280;44775;51.564;5.460;2023-02-26T07:42:49;102075.81;;;-1.46;100.00
58473;BME280;44775;51.564;5.460;2023-02-26T07:45:14;102075.97;;;-1.29;100.00
58473;BME280;44775;51.564;5.460;2023-02-26T07:47:42;102084.84;;;-1.31;100.00
58473;BME280;44775;51.564;5.460;2023-02-26T07:50:08;102075.97;;;-1.29;100.00
58473;BME280;44775;51.564;5.460;2023-02-26T07:52:35;102088.47;;;-1.13;100.00
58473;BME280;44775;51.564;5.460;2023-02-26T07:55:00;102071.66;;;-1.08;100.00
58473;BME280;44775;51.564;5.460;2023-02-26T07:57:25;102091.97;;;-0.92;100.00
58473;BME280;44775;51.564;5.460;2023-02-26T07:59:51;102099.41;;;-0.82;100.00
58473;BME280;44775;51.564;5.460;2023-02-26T08:02:16;102107.50;;;-0.66;100.00
58473;BME280;44775;51.564;5.460;2023-02-26T08:04:42;102103.22;;;-0.68;98.95
58473;BME280;44775;51.564;5.460;2023-02-26T08:07:07;102097.72;;;-0.62;97.11
58473;BME280;44775;51.564;5.460;2023-02-26T08:09:33;102098.50;;;-0.40;100.00
58473;BME280;44775;51.564;5.460;2023-02-26T08:11:58;102108.69;;;-0.13;96.79
58473;BME280;44775;51.564;5.460;2023-02-26T08:14:24;102109.50;;;0.27;93.00
58473;BME280;44775;51.564;5.460;2023-02-26T08:16:49;102116.72;;;0.59;93.38
58473;BME280;44775;51.564;5.460;2023-02-26T08:19:15;102122.53;;;1.02;87.73
58473;BME280;44775;51.564;5.460;2023-02-26T08:21:40;102123.50;;;1.18;86.81
58473;BME280;44775;51.564;5.460;2023-02-26T08:24:05;102126.81;;;1.39;83.49
58473;BME280;44775;51.564;5.460;2023-02-26T08:26:35;102132.53;;;1.48;86.19
58473;BME280;44775;51.564;5.460;2023-02-26T08:29:01;102125.53;;;1.81;97.57
58473;BME280;44775;51.564;5.460;2023-02-26T08:31:26;102130.78;;;2.15;91.29
58473;BME280;44775;51.564;5.460;2023-02-26T08:33:52;102140.84;;;2.40;92.71
58473;BME280;44775;51.564;5.460;2023-02-26T08:36:18;102148.19;;;2.50;81.02
58473;BME280;44775;51.564;5.460;2023-02-26T08:38:43;102151.44;;;2.71;80.65
58473;BME280;44775;51.564;5.460;2023-02-26T08:41:08;102155.47;;;3.08;83.04
58473;BME280;44775;51.564;5.460;2023-02-26T08:43:34;102148.13;;;3.14;75.06
58473;BME280;44775;51.564;5.460;2023-02-26T08:45:59;102147.78;;;3.20;85.05
58473;BME280;44775;51.564;5.460;2023-02-26T08:48:24;102165.13;;;3.24;72.30
58473;BME280;44775;51.564;5.460;2023-02-26T08:50:50;102165.91;;;3.26;71.12
58473;BME280;44775;51.564;5.460;2023-02-26T08:53:16;102172.69;;;3.46;84.39
58473;BME280;44775;51.564;5.460;2023-02-26T08:55:41;102179.47;;;3.50;79.31
58473;BME280;44775;51.564;5.460;2023-02-26T08:58:09;102176.78;;;3.66;72.69
58473;BME280;44775;51.564;5.460;2023-02-26T09:00:34;102179.09;;;4.00;81.99
58473;BME280;44775;51.564;5.460;2023-02-26T09:03:00;102190.09;;;4.09;74.03
58473;BME280;44775;51.564;5.460;2023-02-26T09:05:25;102181.34;;;4.35;79.86
58473;BME280;44775;51.564;5.460;2023-02-26T09:07:53;102201.59;;;4.36;71.82
58473;BME280;44775;51.564;5.460;2023-02-26T09:10:18;102197.25;;;4.49;71.60
58473;BME280;44775;51.564;5.460;2023-02-26T09:12:43;102202.53;;;4.64;74.15
58473;BME280;44775;51.564;5.460;2023-02-26T09:15:10;102195.47;;;4.91;68.31
58473;BME280;44775;51.564;5.460;2023-02-26T09:17:36;102205.78;;;4.82;69.51
58473;BME280;44775;51.564;5.460;2023-02-26T09:20:02;102210.06;;;4.84;65.19
58473;BME280;44775;51.564;5.460;2023-02-26T09:22:28;102208.31;;;4.97;63.11
58473;BME280;44775;51.564;5.460;2023-02-26T09:24:53;102215.06;;;5.16;67.60
58473;BME280;44775;51.564;5.460;2023-02-26T09:27:19;102211.50;;;5.30;61.43
58473;BME280;44775;51.564;5.460;2023-02-26T09:29:44;102217.19;;;5.11;56.80
58473;BME280;44775;51.564;5.460;2023-02-26T09:32:09;102218.59;;;5.02;59.15
58473;BME280;44775;51.564;5.460;2023-02-26T09:34:35;102216.78;;;4.76;65.96
58473;BME280;44775;51.564;5.460;2023-02-26T09:37:05;102230.63;;;4.38;60.66
58473;BME280;44775;51.564;5.460;2023-02-26T09:39:31;102233.16;;;4.25;60.09
58473;BME280;44775;51.564;5.460;2023-02-26T09:41:59;102240.28;;;4.39;61.61
58473;BME280;44775;51.564;5.460;2023-02-26T09:44:36;102241.88;;;4.56;67.33
58473;BME280;44775;51.564;5.460;2023-02-26T09:47:30;102243.72;;;4.82;60.42
58473;BME280;44775;51.564;5.460;2023-02-26T09:50:32;102253.94;;;4.88;59.23
58473;BME280;44775;51.564;5.460;2023-02-26T09:53:16;102251.84;;;4.93;58.83
58473;BME280;44775;51.564;5.460;2023-02-26T09:55:45;102253.03;;;5.16;58.53
58473;BME280;44775;51.564;5.460;2023-02-26T09:58:20;102263.25;;;5.08;54.92
58473;BME280;44775;51.564;5.460;2023-02-26T10:03:29;102260.59;;;5.08;55.06
58473;BME280;44775;51.564;5.460;2023-02-26T10:08:25;102281.84;;;4.51;56.22
58473;BME280;44775;51.564;5.460;2023-02-26T10:11:13;102284.50;;;4.65;57.14
58473;BME280;44775;51.564;5.460;2023-02-26T10:13:45;102282.81;;;4.50;55.44
58473;BME280;44775;51.564;5.460;2023-02-26T10:16:20;102281.78;;;4.53;57.33
58473;BME280;44775;51.564;5.460;2023-02-26T10:19:01;102296.22;;;4.47;56.60
58473;BME280;44775;51.564;5.460;2023-02-26T10:21:36;102294.34;;;4.49;56.73
58473;BME280;44775;51.564;5.460;2023-02-26T10:24:09;102284.31;;;4.54;54.82
58473;BME280;44775;51.564;5.460;2023-02-26T10:26:44;102288.84;;;4.81;57.16
58473;BME280;44775;51.564;5.460;2023-02-26T10:29:33;102289.13;;;5.32;57.89
58473;BME280;44775;51.564;5.460;2023-02-26T10:32:14;102293.78;;;5.82;57.82
58473;BME280;44775;51.564;5.460;2023-02-26T10:34:57;102289.19;;;6.11;54.16
58473;BME280;44775;51.564;5.460;2023-02-26T10:42:57;102290.91;;;6.25;51.34
58473;BME280;44775;51.564;5.460;2023-02-26T10:50:48;102294.81;;;6.07;47.92
58473;BME280;44775;51.564;5.460;2023-02-26T10:53:13;102302.16;;;6.29;55.27
58473;BME280;44775;51.564;5.460;2023-02-26T10:56:00;102301.09;;;6.44;48.33
58473;BME280;44775;51.564;5.460;2023-02-26T10:58:28;102303.88;;;6.43;48.47
58473;BME280;44775;51.564;5.460;2023-02-26T11:00:55;102306.41;;;6.31;48.78
58473;BME280;44775;51.564;5.460;2023-02-26T11:03:37;102305.16;;;6.62;48.89
58473;BME280;44775;51.564;5.460;2023-02-26T11:06:04;102313.84;;;6.77;46.18
58473;BME280;44775;51.564;5.460;2023-02-26T11:08:42;102300.81;;;7.11;47.18
58473;BME280;44775;51.564;5.460;2023-02-26T11:11:10;102327.56;;;7.21;44.19
58473;BME280;44775;51.564;5.460;2023-02-26T11:13:37;102300.38;;;7.04;53.96
58473;BME280;44775;51.564;5.460;2023-02-26T11:16:16;102309.31;;;7.16;52.20
58473;BME280;44775;51.564;5.460;2023-02-26T11:18:52;102316.56;;;7.38;48.45
58473;BME280;44775;51.564;5.460;2023-02-26T11:21:22;102305.13;;;7.49;45.26
58473;BME280;44775;51.564;5.460;2023-02-26T11:23:53;102306.38;;;7.32;45.14
58473;BME280;44775;51.564;5.460;2023-02-26T11:26:25;102309.59;;;7.24;43.80
58473;BME280;44775;51.564;5.460;2023-02-26T11:28:53;102305.88;;;7.51;44.39
58473;BME280;44775;51.564;5.460;2023-02-26T11:31:21;102301.34;;;7.64;43.67
58473;BME280;44775;51.564;5.460;2023-02-26T11:33:49;102303.78;;;7.67;49.60
58473;BME280;44775;51.564;5.460;2023-02-26T11:36:18;102309.22;;;7.90;41.19
58473;BME280;44775;51.564;5.460;2023-02-26T11:38:45;102315.00;;;7.60;42.59
58473;BME280;44775;51.564;5.460;2023-02-26T11:41:12;102309.69;;;7.60;40.62
58473;BME280;44775;51.564;5.460;2023-02-26T11:43:43;102309.75;;;7.47;39.96
58473;BME280;44775;51.564;5.460;2023-02-26T11:46:09;102308.41;;;7.28;43.61
58473;BME280;44775;51.564;5.460;2023-02-26T11:48:43;102314.28;;;7.21;42.82
58473;BME280;44775;51.564;5.460;2023-02-26T11:51:18;102302.28;;;7.15;44.49
58473;BME280;44775;51.564;5.460;2023-02-26T11:53:59;102307.75;;;7.01;45.98
58473;BME280;44775;51.564;5.460;2023-02-26T11:56:36;102297.94;;;7.14;47.04
58473;BME280;44775;51.564;5.460;2023-02-26T11:59:16;102296.34;;;7.36;42.67
58473;BME280;44775;51.564;5.460;2023-02-26T12:01:41;102297.66;;;7.30;44.25
58473;BME280;44775;51.564;5.460;2023-02-26T12:04:10;102298.16;;;7.59;49.60
58473;BME280;44775;51.564;5.460;2023-02-26T12:06:36;102313.50;;;7.79;41.55
58473;BME280;44775;51.564;5.460;2023-02-26T12:09:01;102304.44;;;7.10;44.99
58473;BME280;44775;51.564;5.460;2023-02-26T12:19:53;102308.44;;;6.66;45.25
58473;BME280;44775;51.564;5.460;2023-02-26T12:34:11;102282.38;;;7.45;44.05
58473;BME280;44775;51.564;5.460;2023-02-26T12:39:49;102291.28;;;7.56;42.44
58473;BME280;44775;51.564;5.460;2023-02-26T12:48:29;102292.19;;;8.39;41.77
58473;BME280;44775;51.564;5.460;2023-02-26T12:51:13;102290.72;;;8.57;40.64
58473;BME280;44775;51.564;5.460;2023-02-26T12:54:02;102280.31;;;8.43;45.15
58473;BME280;44775;51.564;5.460;2023-02-26T12:56:59;102287.72;;;8.62;41.63
58473;BME280;44775;51.564;5.460;2023-02-26T13:08:27;102284.81;;;8.65;45.38
58473;BME280;44775;51.564;5.460;2023-02-26T13:19:12;102294.13;;;8.93;40.00
58473;BME280;44775;51.564;5.460;2023-02-26T13:21:47;102291.69;;;9.12;40.47
58473;BME280;44775;51.564;5.460;2023-02-26T13:24:35;102290.94;;;9.10;39.63
58473;BME280;44775;51.564;5.460;2023-02-26T13:27:04;102300.91;;;8.63;44.71
58473;BME280;44775;51.564;5.460;2023-02-26T13:29:35;102298.13;;;8.87;41.58
58473;BME280;44775;51.564;5.460;2023-02-26T13:34:41;102286.38;;;8.90;45.38
58473;BME280;44775;51.564;5.460;2023-02-26T13:42:52;102280.44;;;8.52;42.57
58473;BME280;44775;51.564;5.460;2023-02-26T13:48:37;102286.63;;;8.75;39.07
58473;BME280;44775;51.564;5.460;2023-02-26T13:54:04;102259.75;;;8.67;45.88
58473;BME280;44775;51.564;5.460;2023-02-26T13:59:03;102272.56;;;8.96;41.59
58473;BME280;44775;51.564;5.460;2023-02-26T14:04:29;102280.19;;;8.89;41.00
58473;BME280;44775;51.564;5.460;2023-02-26T14:06:57;102278.56;;;9.20;41.47
58473;BME280;44775;51.564;5.460;2023-02-26T14:12:01;102269.09;;;9.28;44.67
58473;BME280;44775;51.564;5.460;2023-02-26T14:14:33;102289.41;;;9.51;42.66
58473;BME280;44775;51.564;5.460;2023-02-26T14:19:40;102286.81;;;9.17;40.38
58473;BME280;44775;51.564;5.460;2023-02-26T14:24:56;102279.94;;;9.04;48.61
58473;BME280;44775;51.564;5.460;2023-02-26T14:35:18;102288.84;;;9.36;40.98
58473;BME280;44775;51.564;5.460;2023-02-26T14:37:55;102286.06;;;9.27;40.61
58473;BME280;44775;51.564;5.460;2023-02-26T14:40:22;102288.34;;;9.42;39.29
58473;BME280;44775;51.564;5.460;2023-02-26T14:43:01;102290.22;;;9.19;36.24
58473;BME280;44775;51.564;5.460;2023-02-26T14:45:34;102293.41;;;9.02;38.90
58473;BME280;44775;51.564;5.460;2023-02-26T14:48:03;102292.81;;;8.98;36.65
58473;BME280;44775;51.564;5.460;2023-02-26T15:04:13;102286.63;;;8.87;39.85
58473;BME280;44775;51.564;5.460;2023-02-26T15:09:23;102276.09;;;8.85;45.38
58473;BME280;44775;51.564;5.460;2023-02-26T15:12:13;102286.28;;;8.91;39.26
58473;BME280;44775;51.564;5.460;2023-02-26T15:15:05;102285.50;;;9.01;42.69
58473;BME280;44775;51.564;5.460;2023-02-26T15:17:48;102290.22;;;9.19;41.47
58473;BME280;44775;51.564;5.460;2023-02-26T15:20:26;102288.28;;;9.10;40.81
58473;BME280;44775;51.564;5.460;2023-02-26T15:25:47;102293.03;;;8.95;38.59
58473;BME280;44775;51.564;5.460;2023-02-26T15:28:35;102293.88;;;8.96;39.66
58473;BME280;44775;51.564;5.460;2023-02-26T15:31:04;102298.13;;;8.65;38.58
58473;BME280;44775;51.564;5.460;2023-02-26T15:33:30;102291.59;;;8.80;42.59